createdAt,value
2019-04-21T00:00:35.336Z,47.17
2019-04-21T00:01:39.866Z,47.07
2019-04-21T00:02:37.749Z,47.27
2019-04-21T00:03:42.285Z,47.99
2019-04-21T00:04:46.545Z,47.17
2019-04-21T00:05:52.976Z,46.97
2019-04-21T00:07:01.275Z,47.07
2019-04-21T00:07:54.317Z,48.01
2019-04-21T00:09:00.882Z,47.68
2019-04-21T00:10:57.836Z,47.40
2019-04-21T00:11:55.674Z,47.60
2019-04-21T00:12:52.323Z,47.50
2019-04-21T00:13:47.030Z,47.71
2019-04-21T00:14:45.032Z,47.09
2019-04-21T00:15:42.279Z,47.81
2019-04-21T00:16:44.144Z,47.81
2019-04-21T00:17:35.078Z,48.11
2019-04-21T00:18:40.691Z,48.63
2019-04-21T00:19:37.062Z,48.34
2019-04-21T00:20:39.636Z,48.32
2019-04-21T00:21:40.490Z,48.22
2019-04-21T00:22:44.337Z,48.11
2019-04-21T00:23:53.842Z,48.96
2019-04-21T00:25:46.140Z,48.24
2019-04-21T00:26:53.147Z,48.96
2019-04-21T00:27:55.224Z,48.96
2019-04-21T00:28:59.412Z,49.37
2019-04-21T00:29:56.671Z,48.75
2019-04-21T00:30:50.877Z,48.77
2019-04-21T00:31:45.557Z,48.96
2019-04-21T00:32:46.049Z,49.26
2019-04-21T00:33:39.174Z,49.08
2019-04-21T00:34:34.286Z,49.49
2019-04-21T00:35:41.456Z,48.75
2019-04-21T00:36:47.549Z,49.59
2019-04-21T00:37:53.174Z,49.47
2019-04-21T00:39:09.542Z,49.59
2019-04-21T00:40:02.172Z,49.47
2019-04-21T00:40:56.714Z,49.49
2019-04-21T00:41:53.747Z,49.49
2019-04-21T00:42:48.754Z,49.29
2019-04-21T00:43:49.403Z,48.98
2019-04-21T00:44:54.240Z,49.90
2019-04-21T00:45:44.876Z,49.59
2019-04-21T00:46:47.239Z,49.80
2019-04-21T00:47:51.137Z,49.82
2019-04-21T00:48:53.571Z,49.90
2019-04-21T00:49:56.522Z,49.80
2019-04-21T00:51:10.623Z,49.18
2019-04-21T00:52:07.240Z,49.51
2019-04-21T00:53:00.451Z,50.54
2019-04-21T00:55:10.960Z,50.23
2019-04-21T00:55:59.704Z,50.85
2019-04-21T00:56:56.259Z,50.34
2019-04-21T00:57:57.195Z,50.54
2019-04-21T00:58:59.835Z,51.15
2019-04-21T00:59:52.175Z,50.97
2019-04-21T01:01:00.439Z,50.74
2019-04-21T01:01:55.502Z,50.67
2019-04-21T01:02:56.167Z,50.67
2019-04-21T01:03:57.729Z,50.77
2019-04-21T01:05:00.048Z,50.67
2019-04-21T01:06:14.365Z,50.77
2019-04-21T01:06:57.626Z,50.87
2019-04-21T01:07:54.653Z,50.67
2019-04-21T01:08:55.073Z,50.46
2019-04-21T01:09:50.929Z,50.64
2019-04-21T01:10:47.365Z,50.77
2019-04-21T01:11:55.295Z,51.07
2019-04-21T01:12:54.703Z,50.97
2019-04-21T01:13:58.001Z,51.07
2019-04-21T01:14:58.161Z,51.18
2019-04-21T01:15:52.790Z,51.07
2019-04-21T01:16:57.637Z,51.18
2019-04-21T01:17:52.175Z,51.39
2019-04-21T01:18:54.574Z,51.48
2019-04-21T01:19:50.642Z,51.28
2019-04-21T01:20:33.164Z,51.28
2019-04-21T01:21:32.145Z,51.82
2019-04-21T01:22:32.101Z,51.79
2019-04-21T01:23:32.108Z,51.41
2019-04-21T01:24:36.177Z,50.77
2019-04-21T01:25:38.191Z,52.12
2019-04-21T01:26:43.786Z,52.10
2019-04-21T01:27:53.846Z,52.00
2019-04-21T01:28:54.449Z,51.92
2019-04-21T01:29:58.761Z,51.18
2019-04-21T01:30:53.558Z,51.79
2019-04-21T01:31:48.237Z,51.79
2019-04-21T01:32:53.215Z,51.18
2019-04-21T01:33:57.482Z,52.10
2019-04-21T01:34:53.255Z,51.79
2019-04-21T01:35:54.911Z,52.23
2019-04-21T01:36:52.925Z,52.12
2019-04-21T01:37:57.764Z,51.84
2019-04-21T01:38:58.288Z,52.04
2019-04-21T01:39:54.505Z,52.44
2019-04-21T01:40:57.124Z,52.36
2019-04-21T01:41:57.230Z,52.87
2019-04-21T01:42:51.414Z,53.08
2019-04-21T01:43:50.343Z,53.08
2019-04-21T01:44:53.475Z,53.30
2019-04-21T01:45:48.765Z,53.30
2019-04-21T01:46:49.046Z,53.30
2019-04-21T01:47:52.178Z,53.81
2019-04-21T01:48:49.398Z,53.61
2019-04-21T01:49:45.353Z,53.81
2019-04-21T01:50:51.268Z,53.92
2019-04-21T01:52:03.121Z,53.61
2019-04-21T01:52:56.005Z,53.41
2019-04-21T01:53:55.135Z,53.72
2019-04-21T01:54:55.130Z,53.92
2019-04-21T01:55:58.742Z,54.43
2019-04-21T01:56:51.238Z,54.43
2019-04-21T01:57:52.158Z,53.92
2019-04-21T01:58:44.348Z,53.41
2019-04-21T01:59:48.773Z,53.72
2019-04-21T02:00:48.255Z,53.89
2019-04-21T02:01:52.335Z,53.49
2019-04-21T02:02:59.279Z,53.28
2019-04-21T02:04:57.581Z,53.79
2019-04-21T02:06:00.020Z,53.51
2019-04-21T02:06:57.297Z,53.64
2019-04-21T02:08:51.455Z,54.15
2019-04-21T02:09:59.292Z,54.77
2019-04-21T02:10:56.048Z,54.66
2019-04-21T02:11:56.368Z,54.56
2019-04-21T02:12:52.459Z,54.77
2019-04-21T02:13:57.192Z,55.18
2019-04-21T02:15:00.430Z,54.56
2019-04-21T02:15:55.547Z,54.59
2019-04-21T02:16:52.106Z,54.79
2019-04-21T02:17:53.783Z,54.69
2019-04-21T02:18:52.968Z,54.69
2019-04-21T02:19:51.457Z,55.21
2019-04-21T02:20:41.007Z,55.10
2019-04-21T02:21:48.843Z,54.69
2019-04-21T02:23:10.015Z,55.30
2019-04-21T02:23:58.688Z,55.93
2019-04-21T02:24:57.771Z,55.51
2019-04-21T02:25:58.786Z,54.49
2019-04-21T02:26:57.314Z,55.72
2019-04-21T02:27:59.492Z,55.51
2019-04-21T02:29:01.845Z,55.23
2019-04-21T02:29:55.929Z,55.41
2019-04-21T02:32:14.282Z,55.54
2019-04-21T02:33:13.735Z,55.85
2019-04-21T02:34:04.524Z,55.54
2019-04-21T02:36:17.073Z,55.23
2019-04-21T02:37:17.641Z,55.33
2019-04-21T02:38:11.970Z,56.26
2019-04-21T02:39:15.886Z,55.64
2019-04-21T02:40:57.916Z,55.74
2019-04-21T02:42:02.896Z,55.54
2019-04-21T02:43:05.674Z,55.43
2019-04-21T02:44:08.627Z,55.54
2019-04-21T02:45:00.341Z,55.23
2019-04-21T02:46:04.792Z,55.13
2019-04-21T02:47:14.254Z,56.46
2019-04-21T02:48:08.883Z,56.44
2019-04-21T02:49:05.637Z,56.15
2019-04-21T02:50:09.916Z,57.08
2019-04-21T02:50:57.727Z,56.46
2019-04-21T02:52:27.461Z,56.46
2019-04-21T02:53:05.509Z,56.77
2019-04-21T02:54:35.925Z,56.36
2019-04-21T02:55:02.727Z,56.26
2019-04-21T02:56:05.711Z,56.67
2019-04-21T02:58:06.221Z,56.77
2019-04-21T02:59:05.309Z,56.77
2019-04-21T03:00:06.433Z,56.67
2019-04-21T03:01:10.043Z,57.06
2019-04-21T03:04:06.242Z,56.87
2019-04-21T03:05:02.147Z,56.87
2019-04-21T03:06:15.387Z,56.67
2019-04-21T03:07:09.707Z,56.67
2019-04-21T03:08:05.624Z,57.31
2019-04-21T03:10:00.111Z,57.01
2019-04-21T03:11:09.086Z,57.73
2019-04-21T03:13:08.941Z,57.44
2019-04-21T03:14:11.061Z,57.44
2019-04-21T03:15:04.345Z,57.96
2019-04-21T03:16:09.493Z,57.65
2019-04-21T03:17:09.632Z,58.26
2019-04-21T03:18:09.742Z,58.16
2019-04-21T03:20:02.899Z,57.65
2019-04-21T03:22:05.170Z,57.86
2019-04-21T03:23:07.817Z,58.26
2019-04-21T03:24:05.856Z,58.89
2019-04-21T03:26:16.490Z,58.16
2019-04-21T03:29:05.830Z,57.75
2019-04-21T03:36:38.386Z,57.65
2019-04-21T03:38:06.194Z,58.16
2019-04-21T03:39:04.662Z,57.75
2019-04-21T03:40:03.264Z,57.96
2019-04-21T03:41:08.588Z,58.06
2019-04-21T03:42:07.352Z,57.75
2019-04-21T03:43:04.442Z,57.86
2019-04-21T03:44:12.344Z,58.16
2019-04-21T03:45:25.347Z,57.75
2019-04-21T03:46:01.258Z,57.75
2019-04-21T03:47:08.353Z,57.96
2019-04-21T03:48:04.723Z,58.16
2019-04-21T03:51:04.388Z,58.26
2019-04-21T03:52:11.118Z,58.16
2019-04-21T03:53:03.469Z,57.96
2019-04-21T03:53:59.980Z,57.75
2019-04-21T03:55:12.544Z,58.19
2019-04-21T03:57:19.965Z,58.29
2019-04-21T03:58:16.962Z,58.81
2019-04-21T04:00:18.126Z,58.40
2019-04-21T04:03:35.287Z,58.70
2019-04-21T04:05:05.726Z,58.78
2019-04-21T04:06:08.024Z,58.70
2019-04-21T04:07:19.092Z,58.40
2019-04-21T04:08:07.618Z,58.26
2019-04-21T04:09:14.431Z,58.60
2019-04-21T04:10:08.305Z,57.54
2019-04-21T04:11:58.321Z,57.96
2019-04-21T04:13:07.285Z,58.78
2019-04-21T04:14:20.268Z,57.86
2019-04-21T04:15:00.644Z,57.86
2019-04-21T04:17:14.657Z,58.89
2019-04-21T04:18:03.793Z,58.16
2019-04-21T04:18:59.117Z,58.58
2019-04-21T04:20:05.365Z,58.58
2019-04-21T04:21:16.859Z,58.37
2019-04-21T04:22:04.040Z,58.78
2019-04-21T04:23:03.002Z,59.09
2019-04-21T04:25:04.603Z,58.68
2019-04-21T04:26:16.964Z,58.68
2019-04-21T04:27:12.731Z,58.58
2019-04-21T04:30:08.090Z,58.06
2019-04-21T04:31:05.107Z,59.19
2019-04-21T04:31:55.401Z,59.70
2019-04-21T04:32:57.484Z,59.40
2019-04-21T04:34:05.018Z,59.19
2019-04-21T04:35:03.890Z,60.02
2019-04-21T04:37:05.966Z,60.61
2019-04-21T04:38:03.670Z,60.33
2019-04-21T04:39:17.989Z,60.50
2019-04-21T04:41:09.665Z,60.40
2019-04-21T04:42:27.221Z,60.61
2019-04-21T04:43:07.930Z,60.40
2019-04-21T04:44:05.166Z,60.61
2019-04-21T04:46:03.805Z,60.61
2019-04-21T04:49:10.604Z,60.27
2019-04-21T04:51:16.947Z,59.68
2019-04-21T04:52:52.597Z,59.14
2019-04-21T04:53:54.476Z,57.90
2019-04-21T04:56:05.007Z,57.39
2019-04-21T04:57:10.005Z,57.29
2019-04-21T05:00:15.662Z,57.50
2019-04-21T05:01:28.791Z,57.57
2019-04-21T05:02:14.971Z,57.59
2019-04-21T05:03:01.435Z,57.90
2019-04-21T05:04:05.892Z,57.57
2019-04-21T05:06:18.682Z,57.36
2019-04-21T05:07:07.077Z,57.57
2019-04-21T05:08:19.727Z,58.08
2019-04-21T05:09:15.101Z,57.78
2019-04-21T05:10:00.043Z,56.64
2019-04-21T05:11:07.770Z,55.30
2019-04-21T05:11:55.295Z,55.28
2019-04-21T05:12:57.034Z,56.10
2019-04-21T05:14:59.263Z,55.49
2019-04-21T05:16:01.582Z,55.49
2019-04-21T05:17:03.937Z,55.38
2019-04-21T05:18:01.155Z,55.90
2019-04-21T05:21:04.228Z,54.85
2019-04-21T05:21:55.484Z,55.05
2019-04-21T05:22:53.209Z,55.26
2019-04-21T05:23:51.036Z,55.05
2019-04-21T05:24:49.264Z,54.74
2019-04-21T05:25:48.116Z,54.41
2019-04-21T05:26:47.906Z,54.51
2019-04-21T05:27:47.348Z,54.49
2019-04-21T05:28:44.690Z,54.21
2019-04-21T05:29:53.934Z,53.49
2019-04-21T05:30:55.345Z,53.25
2019-04-21T05:32:07.861Z,53.66
2019-04-21T05:32:52.540Z,53.87
2019-04-21T05:33:57.658Z,53.97
2019-04-21T05:34:50.886Z,53.97
2019-04-21T05:35:49.295Z,53.05
2019-04-21T05:36:52.343Z,53.25
2019-04-21T05:37:50.395Z,53.44
2019-04-21T05:38:50.278Z,53.23
2019-04-21T05:39:49.278Z,53.12
2019-04-21T05:40:46.025Z,52.82
2019-04-21T05:41:41.357Z,53.85
2019-04-21T05:42:45.559Z,53.85
2019-04-21T05:43:54.127Z,53.85
2019-04-21T05:44:58.806Z,53.12
2019-04-21T05:45:53.314Z,53.20
2019-04-21T05:47:05.565Z,52.69
2019-04-21T05:47:57.916Z,51.56
2019-04-21T05:48:53.130Z,52.80
2019-04-21T05:49:50.946Z,52.39
2019-04-21T05:50:52.263Z,51.44
2019-04-21T05:51:44.317Z,52.67
2019-04-21T05:52:45.972Z,52.77
2019-04-21T05:54:03.092Z,52.15
2019-04-21T05:54:57.290Z,51.64
2019-04-21T05:56:50.563Z,52.44
2019-04-21T05:57:46.704Z,51.51
2019-04-21T05:58:49.696Z,51.70
2019-04-21T05:59:49.868Z,51.50
2019-04-21T06:01:06.473Z,51.59
2019-04-21T06:01:57.258Z,51.39
2019-04-21T06:02:59.422Z,50.57
2019-04-21T06:03:57.047Z,51.08
2019-04-21T06:06:00.444Z,50.34
2019-04-21T06:06:56.794Z,50.63
2019-04-21T06:07:52.509Z,50.32
2019-04-21T06:08:49.696Z,50.22
2019-04-21T06:09:56.885Z,49.60
2019-04-21T06:10:55.578Z,49.79
2019-04-21T06:11:51.404Z,48.97
2019-04-21T06:13:03.645Z,49.46
2019-04-21T06:13:55.561Z,48.56
2019-04-21T06:14:55.856Z,48.74
2019-04-21T06:16:55.597Z,47.29
2019-04-21T06:17:57.859Z,46.88
2019-04-21T06:19:00.935Z,47.29
2019-04-21T06:19:55.871Z,46.47
2019-04-21T06:20:54.576Z,46.45
2019-04-21T06:21:55.736Z,47.16
2019-04-21T06:22:52.029Z,46.04
2019-04-21T06:23:50.131Z,45.53
2019-04-21T06:25:21.694Z,46.22
2019-04-21T06:27:08.217Z,45.89
2019-04-21T06:27:52.665Z,45.69
2019-04-21T06:28:50.101Z,45.69
2019-04-21T06:29:54.656Z,46.20
2019-04-21T06:31:00.493Z,46.28
2019-04-21T06:32:58.352Z,45.36
2019-04-21T06:33:50.696Z,46.28
2019-04-21T06:36:21.587Z,45.45
2019-04-21T06:36:57.289Z,45.22
2019-04-21T06:37:52.254Z,45.32
2019-04-21T06:39:04.734Z,44.61
2019-04-21T06:40:09.363Z,44.59
2019-04-21T06:41:00.437Z,44.71
2019-04-21T06:41:49.150Z,44.69
2019-04-21T06:43:07.912Z,44.38
2019-04-21T06:45:54.004Z,43.67
2019-04-21T06:46:55.142Z,43.35
2019-04-21T06:47:57.979Z,43.96
2019-04-21T06:48:55.432Z,43.85
2019-04-21T06:49:50.877Z,43.65
2019-04-21T06:50:52.433Z,43.02
2019-04-21T06:51:54.521Z,43.53
2019-04-21T06:53:01.112Z,43.93
2019-04-21T06:53:59.368Z,42.92
2019-04-21T06:54:57.256Z,43.10
2019-04-21T06:55:57.477Z,42.69
2019-04-21T06:56:52.320Z,42.90
2019-04-21T06:57:51.921Z,43.10
2019-04-21T06:58:51.780Z,42.69
2019-04-21T06:59:54.224Z,42.68
2019-04-21T07:00:47.705Z,41.86
2019-04-21T07:02:06.950Z,42.07
2019-04-21T07:03:01.191Z,41.64
2019-04-21T07:04:03.133Z,41.56
2019-04-21T07:04:54.763Z,42.37
2019-04-21T07:05:57.281Z,42.86
2019-04-21T07:06:54.654Z,43.06
2019-04-21T07:08:10.962Z,42.63
2019-04-21T07:09:02.492Z,41.64
2019-04-21T07:09:58.500Z,41.52
2019-04-21T07:10:51.702Z,42.31
2019-04-21T07:11:49.050Z,41.70
2019-04-21T07:12:53.994Z,41.91
2019-04-21T07:13:44.034Z,41.40
2019-04-21T07:14:52.793Z,40.67
2019-04-21T07:15:53.811Z,40.67
2019-04-21T07:17:54.280Z,39.25
2019-04-21T07:19:00.067Z,39.43
2019-04-21T07:19:57.160Z,38.93
2019-04-21T07:20:53.255Z,38.62
2019-04-21T07:21:50.987Z,39.51
2019-04-21T07:22:56.837Z,39.21
2019-04-21T07:23:55.152Z,40.02
2019-04-21T07:24:48.219Z,40.02
2019-04-21T07:25:53.229Z,40.11
2019-04-21T07:26:56.872Z,38.39
2019-04-21T07:27:52.302Z,38.46
2019-04-21T07:28:56.271Z,38.67
2019-04-21T07:29:53.391Z,38.97
2019-04-21T07:30:51.543Z,38.06
2019-04-21T07:31:59.242Z,37.55
2019-04-21T07:32:58.089Z,37.35
2019-04-21T07:34:52.173Z,37.35
2019-04-21T07:35:50.904Z,37.96
2019-04-21T07:37:53.652Z,37.96
2019-04-21T07:38:50.379Z,38.43
2019-04-21T07:39:49.930Z,38.73
2019-04-21T07:40:45.492Z,38.01
2019-04-21T07:41:48.412Z,37.50
2019-04-21T07:42:56.128Z,37.40
2019-04-21T07:43:44.045Z,36.59
2019-04-21T07:44:44.799Z,36.69
2019-04-21T07:45:47.249Z,36.57
2019-04-21T07:46:47.186Z,36.77
2019-04-21T07:47:53.145Z,36.27
2019-04-21T07:48:49.501Z,36.47
2019-04-21T07:49:54.962Z,36.46
2019-04-21T07:50:51.429Z,36.76
2019-04-21T07:51:54.910Z,36.35
2019-04-21T07:52:53.597Z,36.64
2019-04-21T07:53:58.379Z,35.83
2019-04-21T07:54:57.373Z,35.82
2019-04-21T07:55:30.195Z,34.81
2019-04-21T07:56:34.938Z,35.19
2019-04-21T07:57:45.680Z,34.19
2019-04-21T07:58:53.880Z,34.19
2019-04-21T07:59:56.547Z,34.28
2019-04-21T08:01:11.919Z,34.39
2019-04-21T08:01:50.860Z,35.70
2019-04-21T08:02:52.405Z,35.19
2019-04-21T08:05:53.683Z,34.45
2019-04-21T08:07:51.880Z,35.06
2019-04-21T08:08:50.686Z,33.85
2019-04-21T08:09:47.281Z,33.95
2019-04-21T08:10:45.284Z,33.45
2019-04-21T08:11:41.628Z,33.55
2019-04-21T08:12:49.683Z,34.45
2019-04-21T08:14:01.081Z,34.36
2019-04-21T08:14:50.798Z,34.54
2019-04-21T08:16:07.726Z,33.53
2019-04-21T08:16:51.170Z,33.64
2019-04-21T08:17:48.038Z,34.14
2019-04-21T08:18:50.217Z,33.42
2019-04-21T08:19:42.565Z,33.82
2019-04-21T08:20:47.780Z,33.23
2019-04-21T08:21:53.062Z,33.73
2019-04-21T08:22:51.701Z,33.31
2019-04-21T08:23:50.239Z,33.11
2019-04-21T08:24:52.126Z,33.51
2019-04-21T08:26:04.839Z,33.44
2019-04-21T08:26:52.577Z,33.22
2019-04-21T08:28:56.471Z,33.42
2019-04-21T08:29:52.182Z,33.30
2019-04-21T08:30:47.719Z,33.30
2019-04-21T08:31:56.170Z,32.20
2019-04-21T08:33:14.227Z,32.50
2019-04-21T08:33:56.107Z,31.88
2019-04-21T08:34:57.368Z,31.57
2019-04-21T08:36:51.590Z,32.48
2019-04-21T08:37:48.361Z,31.57
2019-04-21T08:38:49.608Z,32.08
2019-04-21T08:39:58.041Z,32.28
2019-04-21T08:40:49.237Z,32.26
2019-04-21T08:41:49.651Z,32.17
2019-04-21T08:42:53.987Z,31.96
2019-04-21T08:43:51.983Z,32.06
2019-04-21T08:44:52.964Z,30.94
2019-04-21T08:45:52.677Z,31.54
2019-04-21T08:46:54.701Z,32.35
2019-04-21T08:48:49.470Z,31.04
2019-04-21T08:49:48.633Z,31.23
2019-04-21T08:50:52.575Z,31.04
2019-04-21T08:51:56.636Z,31.45
2019-04-21T08:52:56.618Z,32.05
2019-04-21T08:54:49.663Z,32.03
2019-04-21T08:56:00.572Z,31.24
2019-04-21T08:56:46.727Z,31.24
2019-04-21T08:58:00.744Z,31.03
2019-04-21T08:58:52.911Z,31.63
2019-04-21T08:59:56.859Z,31.93
2019-04-21T09:00:47.112Z,31.13
2019-04-21T09:01:48.951Z,31.13
2019-04-21T09:02:47.347Z,31.43
2019-04-21T09:03:44.032Z,31.13
2019-04-21T09:04:48.021Z,31.33
2019-04-21T09:05:49.415Z,31.21
2019-04-21T09:06:58.684Z,30.61
2019-04-21T09:07:52.519Z,30.22
2019-04-21T09:08:46.082Z,30.71
2019-04-21T09:09:47.567Z,30.93
2019-04-21T09:10:47.054Z,31.63
2019-04-21T09:11:49.892Z,31.62
2019-04-21T09:12:46.692Z,31.41
2019-04-21T09:13:49.043Z,31.41
2019-04-21T09:14:52.757Z,31.21
2019-04-21T09:15:41.669Z,31.21
2019-04-21T09:16:41.095Z,31.12
2019-04-21T09:17:41.141Z,30.51
2019-04-21T09:18:40.422Z,30.69
2019-04-21T09:20:07.792Z,31.10
2019-04-21T09:21:49.970Z,31.20
2019-04-21T09:22:47.788Z,31.10
2019-04-21T09:23:44.914Z,30.69
2019-04-21T09:24:46.898Z,30.69
2019-04-21T09:25:47.300Z,30.90
2019-04-21T09:26:46.498Z,31.60
2019-04-21T09:27:42.138Z,31.29
2019-04-21T09:28:39.422Z,30.38
2019-04-21T09:29:36.744Z,29.29
2019-04-21T09:30:33.909Z,29.49
2019-04-21T09:31:33.791Z,29.48
2019-04-21T09:32:31.389Z,29.69
2019-04-21T09:33:33.444Z,29.88
2019-04-21T09:34:33.209Z,29.78
2019-04-21T09:35:29.079Z,29.58
2019-04-21T09:36:36.134Z,29.78
2019-04-21T09:37:39.561Z,29.38
2019-04-21T09:38:35.117Z,30.28
2019-04-21T09:39:30.061Z,30.18
2019-04-21T09:40:33.623Z,29.77
2019-04-21T09:41:29.625Z,30.18
2019-04-21T09:42:34.813Z,29.36
2019-04-21T09:43:37.700Z,29.36
2019-04-21T09:44:33.398Z,29.86
2019-04-21T09:45:28.604Z,29.86
2019-04-21T09:46:27.607Z,29.66
2019-04-21T09:47:35.147Z,29.27
2019-04-21T09:48:30.630Z,28.86
2019-04-21T09:49:31.277Z,29.27
2019-04-21T09:50:27.732Z,28.66
2019-04-21T09:51:27.810Z,28.36
2019-04-21T09:52:37.139Z,28.58
2019-04-21T09:53:33.220Z,28.67
2019-04-21T09:54:31.531Z,29.48
2019-04-21T09:55:36.474Z,29.18
2019-04-21T09:56:37.434Z,28.06
2019-04-21T09:57:38.260Z,28.66
2019-04-21T09:58:34.598Z,28.96
2019-04-21T09:59:33.518Z,28.36
2019-04-21T10:00:31.443Z,28.26
2019-04-21T10:01:38.270Z,28.26
2019-04-21T10:02:42.847Z,28.56
2019-04-21T10:03:37.128Z,28.25
2019-04-21T10:04:28.896Z,28.45
2019-04-21T10:05:27.335Z,28.16
2019-04-21T10:06:28.238Z,28.65
2019-04-21T10:07:33.384Z,27.26
2019-04-21T10:08:27.535Z,28.66
2019-04-21T10:09:26.527Z,28.98
2019-04-21T10:10:27.582Z,29.16
2019-04-21T10:11:26.925Z,28.56
2019-04-21T10:12:26.492Z,28.77
2019-04-21T10:13:27.429Z,28.56
2019-04-21T10:14:26.515Z,29.06
2019-04-21T10:15:28.241Z,28.48
2019-04-21T10:16:26.439Z,28.78
2019-04-21T10:17:27.549Z,27.27
2019-04-21T10:18:29.372Z,28.46
2019-04-21T10:19:27.509Z,27.99
2019-04-21T10:20:26.567Z,28.59
2019-04-21T10:21:27.727Z,28.38
2019-04-21T10:22:26.691Z,28.58
2019-04-21T10:23:27.431Z,28.58
2019-04-21T10:24:26.481Z,29.18
2019-04-21T10:25:26.375Z,28.38
2019-04-21T10:26:26.465Z,27.08
2019-04-21T10:27:27.322Z,27.67
2019-04-21T10:28:26.864Z,27.67
2019-04-21T10:29:29.523Z,27.78
2019-04-21T10:30:28.617Z,27.37
2019-04-21T10:31:27.020Z,28.48
2019-04-21T10:32:26.266Z,28.17
2019-04-21T10:33:26.346Z,28.86
2019-04-21T10:34:27.283Z,28.58
2019-04-21T10:35:26.348Z,28.36
2019-04-21T10:36:26.862Z,27.96
2019-04-21T10:37:38.857Z,27.76
2019-04-21T10:38:36.552Z,27.76
2019-04-21T10:39:27.416Z,27.46
2019-04-21T10:40:27.496Z,27.76
2019-04-21T10:41:27.479Z,26.76
2019-04-21T10:42:27.010Z,27.06
2019-04-21T10:43:27.478Z,26.86
2019-04-21T10:44:27.339Z,28.16
2019-04-21T10:45:26.163Z,28.66
2019-04-21T10:46:26.684Z,28.56
2019-04-21T10:47:26.965Z,28.06
2019-04-21T10:48:26.104Z,28.66
2019-04-21T10:49:26.606Z,28.86
2019-04-21T10:50:26.818Z,28.36
2019-04-21T10:51:26.086Z,28.46
2019-04-21T10:52:29.251Z,28.86
2019-04-21T10:53:27.061Z,28.66
2019-04-21T10:54:27.284Z,28.36
2019-04-21T10:55:45.011Z,28.66
2019-04-21T10:56:34.446Z,27.36
2019-04-21T10:57:28.331Z,27.56
2019-04-21T10:58:36.275Z,28.66
2019-04-21T10:59:35.311Z,27.06
2019-04-21T11:00:26.041Z,27.26
2019-04-21T11:01:27.199Z,27.56
2019-04-21T11:02:26.412Z,27.26
2019-04-21T11:03:26.849Z,26.35
2019-04-21T11:04:32.374Z,25.97
2019-04-21T11:05:27.039Z,26.07
2019-04-21T11:06:26.504Z,26.47
2019-04-21T11:07:31.375Z,25.96
2019-04-21T11:09:37.921Z,26.97
2019-04-21T11:10:36.521Z,26.37
2019-04-21T11:11:37.637Z,26.37
2019-04-21T11:12:39.100Z,25.87
2019-04-21T11:13:36.958Z,25.46
2019-04-21T11:14:36.483Z,25.05
2019-04-21T11:15:37.284Z,26.26
2019-04-21T11:16:37.170Z,26.66
2019-04-21T11:17:36.531Z,27.16
2019-04-21T11:18:37.749Z,26.57
2019-04-21T11:19:36.882Z,26.47
2019-04-21T11:20:37.226Z,27.17
2019-04-21T11:21:40.833Z,27.27
2019-04-21T11:22:38.194Z,28.08
2019-04-21T11:23:37.483Z,25.97
2019-04-21T11:24:36.712Z,26.60
2019-04-21T11:25:37.603Z,26.61
2019-04-21T11:26:37.825Z,27.10
2019-04-21T11:28:48.951Z,28.49
2019-04-21T11:29:48.037Z,28.49
2019-04-21T11:30:48.754Z,28.58
2019-04-21T11:31:49.338Z,28.48
2019-04-21T11:32:49.437Z,28.46
2019-04-21T11:33:53.562Z,28.56
2019-04-21T11:34:49.060Z,28.56
2019-04-21T11:35:49.461Z,27.76
2019-04-21T11:36:48.121Z,27.86
2019-04-21T11:37:48.342Z,28.05
2019-04-21T11:39:08.634Z,26.64
2019-04-21T11:39:55.313Z,26.03
2019-04-21T11:40:49.814Z,26.33
2019-04-21T11:41:48.016Z,26.83
2019-04-21T11:42:48.169Z,27.23
2019-04-21T11:43:48.860Z,27.73
2019-04-21T11:44:49.271Z,26.33
2019-04-21T11:45:48.528Z,26.23
2019-04-21T11:46:48.873Z,25.93
2019-04-21T11:47:48.246Z,25.53
2019-04-21T11:48:48.336Z,25.43
2019-04-21T11:49:49.258Z,25.14
2019-04-21T11:50:48.827Z,25.54
2019-04-21T11:51:48.967Z,26.54
2019-04-21T11:52:49.229Z,26.06
2019-04-21T11:53:48.797Z,26.06
2019-04-21T11:54:48.665Z,25.96
2019-04-21T11:55:49.943Z,27.08
2019-04-21T11:56:48.549Z,27.36
2019-04-21T11:57:49.791Z,27.76
2019-04-21T11:58:47.903Z,27.26
2019-04-21T11:59:47.994Z,26.66
2019-04-21T12:00:47.707Z,26.35
2019-04-21T12:01:47.743Z,26.56
2019-04-21T12:02:47.786Z,26.26
2019-04-21T12:03:47.667Z,26.84
2019-04-21T12:04:47.709Z,26.25
2019-04-21T12:05:47.793Z,25.83
2019-04-21T12:06:49.205Z,25.73
2019-04-21T12:07:47.627Z,25.33
2019-04-21T12:08:50.986Z,26.42
2019-04-21T12:09:48.629Z,25.71
2019-04-21T12:10:47.597Z,24.38
2019-04-21T12:11:47.569Z,23.45
2019-04-21T12:12:47.580Z,23.72
2019-04-21T12:13:47.941Z,22.49
2019-04-21T12:14:48.025Z,21.56
2019-04-21T12:15:47.580Z,20.45
2019-04-21T12:16:48.685Z,19.14
2019-04-21T12:17:48.087Z,19.12
2019-04-21T12:18:47.530Z,18.91
2019-04-21T12:19:48.526Z,19.19
2019-04-21T12:20:47.520Z,17.60
2019-04-21T12:22:00.399Z,18.40
2019-04-21T12:22:49.441Z,18.01
2019-04-21T12:23:48.128Z,17.89
2019-04-21T12:24:47.456Z,18.08
2019-04-21T12:25:47.474Z,17.96
2019-04-21T12:26:47.437Z,16.96
2019-04-21T12:27:48.009Z,16.36
2019-04-21T12:28:47.915Z,16.05
2019-04-21T12:29:48.004Z,16.14
2019-04-21T12:30:47.460Z,15.73
2019-04-21T12:31:47.639Z,15.42
2019-04-21T12:32:48.595Z,14.83
2019-04-21T12:33:47.827Z,15.03
2019-04-21T12:34:50.099Z,14.82
2019-04-21T12:35:48.189Z,14.23
2019-04-21T12:36:48.625Z,14.70
2019-04-21T12:37:48.890Z,13.53
2019-04-21T12:38:53.915Z,14.03
2019-04-21T12:39:48.628Z,14.81
2019-04-21T12:40:48.482Z,13.82
2019-04-21T12:41:48.738Z,14.01
2019-04-21T12:42:48.320Z,14.42
2019-04-21T12:43:48.598Z,14.32
2019-04-21T12:44:47.528Z,14.71
2019-04-21T12:45:47.241Z,14.50
2019-04-21T12:46:47.726Z,13.71
2019-04-21T12:47:49.952Z,14.00
2019-04-21T12:48:47.260Z,13.21
2019-04-21T12:49:47.789Z,13.30
2019-04-21T12:50:47.929Z,13.00
2019-04-21T12:51:48.050Z,13.29
2019-04-21T12:52:47.447Z,13.00
2019-04-21T12:53:47.768Z,13.29
2019-04-21T12:54:47.993Z,13.04
2019-04-21T12:55:48.055Z,14.76
2019-04-21T12:56:47.677Z,15.08
2019-04-21T12:57:47.680Z,15.88
2019-04-21T12:58:47.279Z,16.06
2019-04-21T12:59:47.127Z,14.76
2019-04-21T13:00:47.273Z,15.04
2019-04-21T13:01:47.115Z,14.84
2019-04-21T13:02:47.745Z,14.53
2019-04-21T13:03:47.978Z,14.61
2019-04-21T13:04:49.299Z,13.72
2019-04-21T13:05:47.552Z,13.22
2019-04-21T13:06:47.599Z,13.40
2019-04-21T13:07:47.053Z,12.91
2019-04-21T13:08:55.652Z,12.81
2019-04-21T13:09:48.436Z,12.61
2019-04-21T13:10:48.450Z,12.53
2019-04-21T13:11:47.051Z,13.02
2019-04-21T13:12:47.991Z,12.82
2019-04-21T13:13:48.097Z,13.31
2019-04-21T13:14:47.495Z,13.01
2019-04-21T13:15:47.537Z,13.01
2019-04-21T13:16:47.780Z,12.52
2019-04-21T13:17:47.409Z,12.52
2019-04-21T13:18:47.152Z,12.62
2019-04-21T13:19:47.305Z,12.90
2019-04-21T13:20:46.950Z,12.30
2019-04-21T13:21:47.932Z,11.61
2019-04-21T13:22:48.198Z,12.61
2019-04-21T13:23:47.242Z,12.71
2019-04-21T13:24:47.582Z,12.30
2019-04-21T13:25:47.896Z,12.21
2019-04-21T13:26:52.375Z,11.91
2019-04-21T13:27:49.220Z,12.09
2019-04-21T13:28:47.944Z,12.09
2019-04-21T13:29:48.197Z,11.99
2019-04-21T13:30:46.849Z,11.51
2019-04-21T13:31:47.983Z,12.68
2019-04-21T13:32:47.063Z,12.30
2019-04-21T13:33:48.031Z,12.10
2019-04-21T13:34:47.815Z,12.19
2019-04-21T13:35:46.865Z,12.76
2019-04-21T13:36:47.688Z,11.88
2019-04-21T13:37:49.316Z,11.98
2019-04-21T13:39:22.122Z,12.07
2019-04-21T13:40:07.556Z,11.48
2019-04-21T13:41:03.875Z,11.49
2019-04-21T13:42:00.531Z,11.59
2019-04-21T13:42:52.226Z,12.18
2019-04-21T13:43:48.545Z,12.08
2019-04-21T13:44:46.730Z,12.56
2019-04-21T13:45:47.808Z,12.08
2019-04-21T13:46:47.162Z,12.18
2019-04-21T13:47:46.664Z,12.40
2019-04-21T13:48:46.660Z,12.79
2019-04-21T13:49:47.618Z,12.59
2019-04-21T13:50:47.035Z,12.50
2019-04-21T13:51:47.856Z,13.10
2019-04-21T13:52:46.848Z,14.08
2019-04-21T13:53:46.609Z,13.70
2019-04-21T13:54:47.430Z,14.28
2019-04-21T13:55:46.781Z,13.80
2019-04-21T13:56:46.957Z,14.70
2019-04-21T13:57:46.629Z,14.41
2019-04-21T13:58:46.535Z,14.52
2019-04-21T13:59:49.314Z,14.53
2019-04-21T14:00:47.682Z,14.25
2019-04-21T14:01:47.692Z,15.34
2019-04-21T14:02:46.971Z,14.27
2019-04-21T14:03:47.321Z,15.36
2019-04-21T14:04:47.366Z,15.26